createdAt,value
2024-02-19T00:01:11.340Z,1.75
2024-02-19T00:03:37.845Z,2.28
2024-02-19T00:06:04.345Z,2.13
2024-02-19T00:08:30.758Z,1.85
2024-02-19T00:10:57.231Z,1.75
2024-02-19T00:13:23.715Z,2.78
2024-02-19T00:15:50.183Z,1.85
2024-02-19T00:18:16.662Z,2.13
2024-02-19T00:20:43.626Z,2.30
2024-02-19T00:23:10.050Z,2.20
2024-02-19T00:25:36.486Z,2.20
2024-02-19T00:28:02.962Z,2.92
2024-02-19T00:30:29.441Z,2.30
2024-02-19T00:32:56.021Z,2.50
2024-02-19T00:35:22.589Z,2.90
2024-02-19T00:37:49.621Z,2.22
2024-02-19T00:40:16.602Z,1.38
2024-02-19T00:42:43.132Z,0.82
2024-02-19T00:45:09.836Z,1.45
2024-02-19T00:47:36.235Z,0.70
2024-02-19T00:50:03.031Z,1.13
2024-02-19T00:52:29.597Z,0.95
2024-02-19T00:54:56.035Z,0.70
2024-02-19T00:57:22.471Z,0.52
2024-02-19T00:59:48.915Z,0.20
2024-02-19T01:02:15.476Z,0.60
2024-02-19T01:04:42.066Z,0.63
2024-02-19T01:07:08.568Z,0.60
2024-02-19T01:09:35.053Z,1.23
2024-02-19T01:12:01.516Z,1.25
2024-02-19T01:14:27.933Z,0.75
2024-02-19T01:16:54.358Z,1.60
2024-02-19T01:19:21.024Z,1.88
2024-02-19T01:21:47.572Z,0.82
2024-02-19T01:24:14.014Z,1.02
2024-02-19T01:26:40.442Z,1.88
2024-02-19T01:29:06.871Z,2.40
2024-02-19T01:31:33.296Z,1.10
2024-02-19T01:33:59.800Z,1.73
2024-02-19T01:36:26.267Z,2.95
2024-02-19T01:38:52.671Z,1.33
2024-02-19T01:41:19.103Z,4.05
2024-02-19T01:43:45.537Z,3.35
2024-02-19T01:46:13.100Z,3.63
2024-02-19T01:48:39.692Z,4.72
2024-02-19T01:51:06.560Z,3.88
2024-02-19T01:53:32.988Z,4.38
2024-02-19T01:55:59.817Z,6.32
2024-02-19T01:58:26.901Z,3.80
2024-02-19T02:00:54.122Z,7.22
2024-02-19T02:03:23.151Z,4.40
2024-02-19T02:05:49.872Z,5.10
2024-02-19T02:08:16.577Z,3.72
2024-02-19T02:10:43.130Z,6.07
2024-02-19T02:13:09.715Z,8.00
2024-02-19T02:15:36.304Z,5.43
2024-02-19T02:18:02.910Z,3.72
2024-02-19T02:20:29.372Z,8.80
2024-02-19T02:22:56.632Z,8.23
2024-02-19T02:25:23.089Z,6.40
2024-02-19T02:27:49.555Z,4.30
2024-02-19T02:30:16.065Z,7.00
2024-02-19T02:32:42.579Z,9.20
2024-02-19T02:35:09.509Z,4.60
2024-02-19T02:37:35.926Z,5.22
2024-02-19T02:40:02.396Z,7.45
2024-02-19T02:42:28.833Z,6.75
2024-02-19T02:44:55.235Z,3.80
2024-02-19T02:47:21.667Z,7.20
2024-02-19T02:49:48.133Z,3.78
2024-02-19T02:52:14.640Z,2.22
2024-02-19T02:54:41.100Z,5.65
2024-02-19T02:57:07.575Z,3.45
2024-02-19T02:59:34.016Z,1.80
2024-02-19T03:02:00.616Z,7.05
2024-02-19T03:04:27.275Z,8.70
2024-02-19T03:06:53.890Z,4.95
2024-02-19T03:09:20.389Z,4.47
2024-02-19T03:11:46.823Z,5.45
2024-02-19T03:14:13.253Z,3.00
2024-02-19T03:16:39.670Z,1.98
2024-02-19T03:19:08.758Z,4.00
2024-02-19T03:21:35.219Z,2.90
2024-02-19T03:24:01.662Z,3.25
2024-02-19T03:26:37.494Z,5.35
2024-02-19T03:29:11.458Z,4.32
2024-02-19T03:31:37.959Z,6.20
2024-02-19T03:34:04.418Z,6.00
2024-02-19T03:36:30.906Z,3.83
2024-02-19T03:38:57.319Z,4.80
2024-02-19T03:41:23.765Z,9.40
2024-02-19T03:43:50.189Z,5.60
2024-02-19T03:46:16.924Z,4.68
2024-02-19T03:48:43.488Z,7.70
2024-02-19T03:51:09.933Z,5.90
2024-02-19T03:53:36.359Z,10.93
2024-02-19T03:56:03.236Z,13.40
2024-02-19T03:58:29.687Z,14.05
2024-02-19T04:00:56.182Z,10.98
2024-02-19T04:03:22.685Z,12.32
2024-02-19T04:05:49.121Z,9.55
2024-02-19T04:08:15.518Z,14.43
2024-02-19T04:10:41.964Z,11.88
2024-02-19T04:13:08.436Z,12.68
2024-02-19T04:15:34.904Z,16.02
2024-02-19T04:18:01.461Z,14.60
2024-02-19T04:20:27.964Z,14.45
2024-02-19T04:22:54.388Z,16.70
2024-02-19T04:25:20.884Z,11.23
2024-02-19T04:27:47.337Z,16.40
2024-02-19T04:30:13.770Z,11.88
2024-02-19T04:32:40.280Z,8.60
2024-02-19T04:35:07.303Z,11.52
2024-02-19T04:37:33.774Z,13.77
2024-02-19T04:40:00.326Z,8.82
2024-02-19T04:42:26.815Z,14.27
2024-02-19T04:44:53.261Z,13.45
2024-02-19T04:47:19.731Z,7.70
2024-02-19T04:49:47.669Z,11.60
2024-02-19T04:52:14.143Z,14.32
2024-02-19T04:54:40.674Z,10.18
2024-02-19T04:57:07.101Z,8.10
2024-02-19T04:59:33.542Z,11.95
2024-02-19T05:02:00.099Z,8.20
2024-02-19T05:04:26.719Z,13.15
2024-02-19T05:06:53.256Z,8.07
2024-02-19T05:09:19.738Z,7.18
2024-02-19T05:11:46.154Z,9.85
2024-02-19T05:14:12.576Z,6.03
2024-02-19T05:16:39.006Z,8.80
2024-02-19T05:19:05.584Z,8.75
2024-02-19T05:21:32.111Z,6.65
2024-02-19T05:23:58.565Z,8.30
2024-02-19T05:26:25.991Z,6.53
2024-02-19T05:28:53.121Z,10.25
2024-02-19T05:31:35.331Z,7.38
2024-02-19T05:34:03.334Z,9.68
2024-02-19T05:36:29.785Z,6.93
2024-02-19T05:38:56.186Z,7.65
2024-02-19T05:41:22.613Z,4.97
2024-02-19T05:43:49.053Z,5.20
2024-02-19T05:46:15.833Z,4.45
2024-02-19T05:48:43.158Z,4.85
2024-02-19T05:51:11.537Z,8.65
2024-02-19T05:53:38.321Z,4.55
2024-02-19T05:56:05.269Z,5.90
2024-02-19T05:58:32.250Z,7.47
2024-02-19T06:00:58.864Z,9.40
2024-02-19T06:03:25.786Z,8.95
2024-02-19T06:05:52.394Z,11.25
2024-02-19T06:08:18.796Z,8.20
2024-02-19T06:10:45.381Z,12.40
2024-02-19T06:13:12.144Z,10.18
2024-02-19T06:15:38.600Z,8.00
2024-02-19T06:18:05.443Z,10.02
2024-02-19T06:20:31.898Z,9.90
2024-02-19T06:22:58.312Z,8.45
2024-02-19T06:25:24.873Z,9.85
2024-02-19T06:27:51.507Z,8.43
2024-02-19T06:30:18.023Z,7.45
2024-02-19T06:32:44.517Z,8.32
2024-02-19T06:35:11.079Z,6.38
2024-02-19T06:37:37.556Z,8.40
2024-02-19T06:40:04.296Z,10.00
2024-02-19T06:42:30.755Z,9.73
2024-02-19T06:44:57.149Z,12.80
2024-02-19T06:47:23.607Z,6.97
2024-02-19T06:49:50.131Z,5.85
2024-02-19T06:52:16.710Z,6.93
2024-02-19T06:54:43.193Z,8.77
2024-02-19T06:57:09.644Z,6.70
2024-02-19T06:59:36.097Z,8.82
2024-02-19T07:02:06.801Z,7.40
2024-02-19T07:04:34.741Z,6.25
2024-02-19T07:07:01.501Z,7.60
2024-02-19T07:09:27.958Z,7.93
2024-02-19T07:11:54.395Z,11.05
2024-02-19T07:14:20.975Z,11.38
2024-02-19T07:16:47.392Z,10.38
2024-02-19T07:19:13.899Z,10.25
2024-02-19T07:21:40.408Z,8.80
2024-02-19T07:24:06.903Z,10.25
2024-02-19T07:26:33.319Z,6.93
2024-02-19T07:28:59.791Z,10.57
2024-02-19T07:31:26.321Z,8.35
2024-02-19T07:33:53.029Z,10.68
2024-02-19T07:36:19.760Z,11.88
2024-02-19T07:38:46.205Z,10.35
2024-02-19T07:41:16.641Z,15.95
2024-02-19T07:43:44.346Z,8.95
2024-02-19T07:46:14.073Z,5.93
2024-02-19T07:48:40.772Z,4.80
2024-02-19T07:51:07.636Z,9.10
2024-02-19T07:53:34.058Z,9.68
2024-02-19T07:56:07.247Z,6.05
2024-02-19T07:58:34.287Z,4.90
2024-02-19T08:01:04.262Z,8.85
2024-02-19T08:03:33.356Z,8.52
2024-02-19T08:05:59.919Z,9.32
2024-02-19T08:08:26.696Z,7.53
2024-02-19T08:10:53.422Z,12.60
2024-02-19T08:13:19.977Z,10.48
2024-02-19T08:15:46.644Z,9.93
2024-02-19T08:18:13.121Z,7.53
2024-02-19T08:20:42.012Z,10.20
2024-02-19T08:23:08.473Z,13.00
2024-02-19T08:25:35.017Z,14.77
2024-02-19T08:28:02.000Z,10.50
2024-02-19T08:30:28.476Z,11.25
2024-02-19T08:32:54.929Z,13.40
2024-02-19T08:35:21.501Z,18.05
2024-02-19T08:37:47.960Z,13.15
2024-02-19T08:40:14.403Z,17.70
2024-02-19T08:42:40.946Z,17.52
2024-02-19T08:45:07.661Z,12.38
2024-02-19T08:47:34.138Z,15.98
2024-02-19T08:50:00.725Z,16.98
2024-02-19T08:52:27.311Z,10.57
2024-02-19T08:54:53.849Z,15.73
2024-02-19T08:57:20.292Z,14.15
2024-02-19T08:59:46.713Z,13.82
2024-02-19T09:02:16.945Z,13.63
2024-02-19T09:04:44.978Z,13.77
2024-02-19T09:07:12.227Z,14.43
2024-02-19T09:09:39.078Z,14.65
2024-02-19T09:12:05.804Z,12.57
2024-02-19T09:14:32.248Z,14.52
2024-02-19T09:16:58.663Z,15.32
2024-02-19T09:19:25.157Z,14.30
2024-02-19T09:21:51.697Z,16.42
2024-02-19T09:24:18.158Z,19.15
2024-02-19T09:26:44.588Z,12.57
2024-02-19T09:29:11.048Z,16.02
2024-02-19T09:31:37.579Z,11.30
2024-02-19T09:34:04.246Z,10.60
2024-02-19T09:36:30.757Z,14.32
2024-02-19T09:38:57.189Z,10.38
2024-02-19T09:41:23.850Z,12.60
2024-02-19T09:43:50.438Z,11.55
2024-02-19T09:46:18.415Z,17.00
2024-02-19T09:48:48.074Z,16.75
2024-02-19T09:51:29.210Z,17.73
2024-02-19T09:56:26.492Z,15.25
2024-02-19T09:58:53.187Z,17.40
2024-02-19T10:01:19.908Z,16.05
2024-02-19T10:03:47.019Z,18.17
2024-02-19T10:06:13.716Z,17.65
2024-02-19T10:08:40.221Z,14.55
2024-02-19T10:11:06.663Z,15.70
2024-02-19T10:13:33.069Z,19.42
2024-02-19T10:15:59.549Z,15.55
2024-02-19T10:18:26.082Z,16.92
2024-02-19T10:20:52.540Z,19.25
2024-02-19T10:23:23.357Z,19.55
2024-02-19T10:25:50.302Z,16.38
2024-02-19T10:28:19.074Z,19.08
2024-02-19T10:30:45.568Z,22.05
2024-02-19T10:33:12.101Z,16.92
2024-02-19T10:35:38.571Z,19.83
2024-02-19T10:38:05.104Z,18.20
2024-02-19T10:40:31.668Z,17.55
2024-02-19T10:42:59.155Z,18.77
2024-02-19T10:45:25.991Z,18.88
2024-02-19T10:47:56.049Z,13.60
2024-02-19T10:50:22.625Z,17.23
2024-02-19T10:52:49.630Z,18.85
2024-02-19T10:55:20.138Z,27.50
2024-02-19T10:57:56.127Z,48.95
2024-02-19T11:00:24.412Z,21.08
2024-02-19T11:03:03.171Z,20.98
2024-02-19T11:05:29.674Z,14.95
2024-02-19T11:07:56.249Z,17.77
2024-02-19T11:10:23.262Z,19.25
2024-02-19T11:12:49.782Z,20.33
2024-02-19T11:15:16.384Z,21.55
2024-02-19T11:17:42.839Z,20.25
2024-02-19T11:20:09.833Z,18.15
2024-02-19T11:22:36.238Z,15.57
2024-02-19T11:25:02.787Z,18.67
2024-02-19T11:27:29.237Z,15.85
2024-02-19T11:29:57.088Z,19.85
2024-02-19T11:32:23.646Z,23.52
2024-02-19T11:34:51.852Z,16.92
2024-02-19T11:37:19.544Z,16.05
2024-02-19T11:39:46.382Z,18.33
2024-02-19T11:42:13.772Z,18.08
2024-02-19T11:44:40.574Z,16.67
2024-02-19T11:47:09.146Z,17.55
2024-02-19T11:49:35.908Z,11.63
2024-02-19T11:52:08.287Z,17.70
2024-02-19T11:54:39.202Z,15.20
2024-02-19T11:57:05.627Z,12.52
2024-02-19T11:59:32.670Z,13.10
2024-02-19T12:01:59.388Z,11.32
2024-02-19T12:04:26.201Z,13.23
2024-02-19T12:06:52.843Z,12.45
2024-02-19T12:09:19.686Z,10.10
2024-02-19T12:11:47.785Z,13.82
2024-02-19T12:14:15.173Z,12.32
2024-02-19T12:16:41.592Z,16.42
2024-02-19T12:19:08.114Z,17.20
2024-02-19T12:21:34.850Z,14.80
2024-02-19T12:24:01.897Z,18.30
2024-02-19T12:26:28.350Z,13.77
2024-02-19T12:28:54.794Z,23.38
2024-02-19T12:31:21.382Z,22.90
2024-02-19T12:33:48.027Z,24.50
2024-02-19T12:36:14.908Z,19.90
2024-02-19T12:38:44.870Z,19.38
2024-02-19T12:41:12.219Z,17.30
2024-02-19T12:43:39.331Z,22.02
2024-02-19T12:46:06.745Z,16.77
2024-02-19T12:48:34.199Z,25.00
2024-02-19T12:51:01.946Z,20.55
2024-02-19T12:53:32.003Z,22.10
2024-02-19T12:55:58.602Z,20.10
2024-02-19T12:58:25.247Z,26.55
2024-02-19T13:00:52.093Z,22.02
2024-02-19T13:03:18.754Z,18.15
2024-02-19T13:05:45.722Z,16.65
2024-02-19T13:08:12.743Z,13.80
2024-02-19T13:10:39.436Z,13.45
2024-02-19T13:13:06.844Z,17.80
2024-02-19T13:15:33.627Z,17.52
2024-02-19T13:18:00.153Z,18.13
2024-02-19T13:20:26.694Z,21.63
2024-02-19T13:22:53.236Z,52.05
2024-02-19T13:25:19.777Z,49.53
2024-02-19T13:27:46.281Z,21.80
2024-02-19T13:30:12.764Z,16.55
2024-02-19T13:32:39.277Z,16.33
2024-02-19T13:35:06.050Z,15.63
2024-02-19T13:37:32.552Z,12.10
2024-02-19T13:39:59.001Z,15.63
2024-02-19T13:42:25.541Z,10.02
2024-02-19T13:44:51.947Z,12.70
2024-02-19T13:47:18.377Z,14.80
2024-02-19T13:49:44.943Z,15.48
2024-02-19T13:52:11.514Z,15.85
2024-02-19T13:54:37.977Z,16.92
2024-02-19T13:57:04.657Z,16.15
2024-02-19T13:59:31.125Z,18.15
2024-02-19T14:01:57.987Z,15.80
2024-02-19T14:04:24.553Z,17.17
2024-02-19T14:06:51.117Z,18.92
2024-02-19T14:09:17.631Z,14.95
2024-02-19T14:11:44.122Z,14.05
2024-02-19T14:14:10.575Z,17.30
2024-02-19T14:16:37.253Z,19.55
2024-02-19T14:19:03.875Z,20.30
2024-02-19T14:21:30.759Z,22.48
2024-02-19T14:23:57.264Z,12.88
2024-02-19T14:26:24.322Z,25.52
2024-02-19T14:28:51.769Z,17.67
2024-02-19T14:31:18.234Z,15.20
2024-02-19T14:33:44.743Z,18.40
2024-02-19T14:36:11.885Z,21.58
2024-02-19T14:38:38.732Z,19.10
2024-02-19T14:41:05.199Z,17.73
2024-02-19T14:43:31.862Z,16.88
2024-02-19T14:45:59.480Z,17.35
2024-02-19T14:48:26.099Z,15.57
2024-02-19T14:50:53.368Z,17.45
2024-02-19T14:53:19.855Z,21.92
2024-02-19T14:55:46.283Z,13.07
2024-02-19T14:58:12.859Z,25.30
2024-02-19T15:00:39.303Z,21.10
2024-02-19T15:03:05.785Z,17.75
2024-02-19T15:05:32.480Z,18.35
2024-02-19T15:07:59.152Z,14.32
2024-02-19T15:10:26.198Z,14.70
2024-02-19T15:12:56.309Z,16.02
2024-02-19T15:15:23.460Z,21.98
2024-02-19T15:17:50.527Z,11.95
2024-02-19T15:20:17.656Z,16.17
2024-02-19T15:22:44.216Z,17.98
2024-02-19T15:25:10.842Z,16.40
2024-02-19T15:27:37.372Z,17.20
2024-02-19T15:30:05.113Z,15.20
2024-02-19T15:32:31.537Z,18.20
2024-02-19T15:34:58.069Z,16.30
2024-02-19T15:37:24.542Z,18.38
2024-02-19T15:39:51.127Z,17.83
2024-02-19T15:42:17.638Z,20.02
2024-02-19T15:44:44.116Z,21.17
2024-02-19T15:47:10.543Z,18.95
2024-02-19T15:49:37.123Z,20.30
2024-02-19T15:52:03.791Z,22.38
2024-02-19T15:54:30.410Z,15.77
2024-02-19T15:56:56.965Z,19.83
2024-02-19T15:59:23.367Z,20.95
2024-02-19T16:01:50.341Z,18.80
2024-02-19T16:04:19.791Z,19.35
2024-02-19T16:06:46.416Z,19.55
2024-02-19T16:09:13.199Z,18.02
2024-02-19T16:11:39.644Z,20.25
2024-02-19T16:14:06.112Z,19.35
2024-02-19T16:16:32.742Z,20.33
2024-02-19T16:18:59.302Z,18.02
2024-02-19T16:21:25.785Z,19.27
2024-02-19T16:23:52.231Z,22.08
2024-02-19T16:26:18.643Z,19.23
2024-02-19T16:28:45.073Z,24.83
2024-02-19T16:31:11.789Z,23.75
2024-02-19T16:33:39.685Z,20.90
2024-02-19T16:36:09.039Z,26.83
2024-02-19T16:38:35.748Z,30.40
2024-02-19T16:41:02.170Z,23.88
2024-02-19T16:43:28.677Z,28.55
2024-02-19T16:45:55.199Z,25.25
2024-02-19T16:48:21.905Z,30.73
2024-02-19T16:50:49.533Z,22.90
2024-02-19T16:53:15.940Z,28.67
2024-02-19T16:55:42.712Z,29.35
2024-02-19T16:58:09.154Z,32.33
2024-02-19T17:00:35.672Z,34.30
2024-02-19T17:03:02.158Z,36.92
2024-02-19T17:05:28.726Z,38.22
2024-02-19T17:07:55.394Z,34.35
2024-02-19T17:10:21.985Z,38.42
2024-02-19T17:12:48.453Z,32.83
2024-02-19T17:15:14.924Z,45.03
2024-02-19T17:17:41.444Z,40.13
2024-02-19T17:20:08.664Z,42.78
2024-02-19T17:22:35.199Z,44.25
2024-02-19T17:25:01.804Z,39.15
2024-02-19T17:27:28.234Z,40.92
2024-02-19T17:29:54.674Z,39.08
2024-02-19T17:32:21.085Z,43.17
2024-02-19T17:34:47.715Z,42.20
2024-02-19T17:37:14.239Z,36.78
2024-02-19T17:39:40.753Z,41.20
2024-02-19T17:42:07.200Z,40.85
2024-02-19T17:44:33.611Z,49.80
2024-02-19T17:47:00.059Z,41.78
2024-02-19T17:49:26.678Z,46.38
2024-02-19T17:51:53.296Z,46.40
2024-02-19T17:54:20.142Z,46.85
2024-02-19T17:56:47.192Z,42.88
2024-02-19T17:59:13.630Z,43.85
2024-02-19T18:01:40.153Z,45.90
2024-02-19T18:04:06.730Z,44.50
2024-02-19T18:06:34.373Z,42.33
2024-02-19T18:09:01.563Z,43.85
2024-02-19T18:11:27.998Z,45.25
2024-02-19T18:13:54.522Z,48.38
2024-02-19T18:16:23.753Z,44.92
2024-02-19T18:18:50.335Z,43.40
2024-02-19T18:21:16.991Z,42.58
2024-02-19T18:23:43.513Z,43.05
2024-02-19T18:26:10.109Z,38.10
2024-02-19T18:28:36.569Z,39.25
2024-02-19T18:31:03.614Z,37.05
2024-02-19T18:33:30.037Z,40.90
2024-02-19T18:35:56.559Z,40.00
2024-02-19T18:38:24.499Z,36.30
2024-02-19T18:40:50.922Z,37.30
2024-02-19T18:43:17.355Z,41.92
2024-02-19T18:45:43.782Z,37.58
2024-02-19T18:48:10.260Z,40.97
2024-02-19T18:50:36.753Z,38.08
2024-02-19T18:53:03.189Z,30.08
2024-02-19T18:55:29.850Z,34.88
2024-02-19T18:57:56.643Z,33.78
2024-02-19T19:00:23.251Z,31.08
2024-02-19T19:02:50.115Z,32.47
2024-02-19T19:05:16.764Z,29.75
2024-02-19T19:07:43.332Z,29.02
2024-02-19T19:10:10.110Z,25.90
2024-02-19T19:12:36.586Z,21.08
2024-02-19T19:15:03.084Z,21.85
2024-02-19T19:17:29.638Z,17.20
2024-02-19T19:19:56.228Z,15.45
2024-02-19T19:22:22.797Z,16.05
2024-02-19T19:24:49.400Z,16.17
2024-02-19T19:27:15.921Z,18.27
2024-02-19T19:29:42.354Z,16.90
2024-02-19T19:32:08.768Z,19.48
2024-02-19T19:34:35.253Z,21.40
2024-02-19T19:37:01.747Z,23.05
2024-02-19T19:39:28.221Z,22.33
2024-02-19T19:41:54.691Z,25.08
2024-02-19T19:44:21.132Z,22.13
2024-02-19T19:46:47.570Z,19.58
2024-02-19T19:49:14.030Z,19.55
2024-02-19T19:51:40.512Z,18.88
2024-02-19T19:54:06.928Z,18.75
2024-02-19T19:56:35.631Z,16.10
2024-02-19T19:59:02.123Z,16.10
2024-02-19T20:01:28.691Z,19.50
2024-02-19T20:03:55.189Z,14.45
2024-02-19T20:06:21.736Z,17.67
2024-02-19T20:08:48.244Z,12.20
2024-02-19T20:11:14.706Z,16.02
2024-02-19T20:13:41.224Z,15.40
2024-02-19T20:16:07.751Z,14.20
2024-02-19T20:18:34.197Z,15.40
2024-02-19T20:21:01.628Z,13.27
2024-02-19T20:23:30.578Z,13.93
2024-02-19T20:25:58.049Z,12.93
2024-02-19T20:28:24.517Z,14.43
2024-02-19T20:30:51.050Z,15.32
2024-02-19T20:33:17.587Z,13.00
2024-02-19T20:35:44.046Z,15.98
2024-02-19T20:38:10.474Z,15.32
2024-02-19T20:40:37.229Z,14.95
2024-02-19T20:43:04.029Z,15.70
2024-02-19T20:45:30.486Z,17.90
2024-02-19T20:47:57.066Z,18.50
2024-02-19T20:50:23.580Z,18.30
2024-02-19T20:52:50.062Z,17.60
2024-02-19T20:55:16.629Z,16.77
2024-02-19T20:57:43.120Z,20.92
2024-02-19T21:00:09.854Z,20.30
2024-02-19T21:02:39.602Z,18.90
2024-02-19T21:05:09.732Z,15.98
2024-02-19T21:07:37.576Z,18.52
2024-02-19T21:10:05.273Z,16.30
2024-02-19T21:12:31.842Z,14.73
2024-02-19T21:14:58.303Z,17.33
2024-02-19T21:17:24.849Z,15.18
2024-02-19T21:19:51.448Z,16.40
2024-02-19T21:22:18.007Z,15.20
2024-02-19T21:24:44.459Z,14.25
2024-02-19T21:27:10.905Z,13.88
2024-02-19T21:29:37.339Z,20.15
2024-02-19T21:32:03.898Z,12.27
2024-02-19T21:34:31.814Z,14.57
2024-02-19T21:36:58.571Z,15.48
2024-02-19T21:39:25.114Z,12.50
2024-02-19T21:41:51.604Z,12.98
2024-02-19T21:44:18.018Z,14.30
2024-02-19T21:46:44.438Z,16.10
2024-02-19T21:49:11.002Z,19.13
2024-02-19T21:51:40.753Z,15.52
2024-02-19T21:54:07.156Z,14.90
2024-02-19T21:56:33.575Z,14.40
2024-02-19T21:59:00.080Z,18.55
2024-02-19T22:01:26.645Z,16.48
2024-02-19T22:03:53.382Z,14.60
2024-02-19T22:06:19.914Z,16.17
2024-02-19T22:08:46.378Z,14.63
2024-02-19T22:11:12.839Z,17.58
2024-02-19T22:13:39.338Z,15.55
2024-02-19T22:16:06.260Z,16.15
2024-02-19T22:18:32.827Z,14.82
2024-02-19T22:20:59.358Z,21.48
2024-02-19T22:23:25.782Z,18.35
2024-02-19T22:25:52.212Z,12.38
2024-02-19T22:28:18.826Z,17.23
2024-02-19T22:30:45.398Z,14.43
2024-02-19T22:33:11.940Z,20.02
2024-02-19T22:35:38.501Z,14.63
2024-02-19T22:38:05.064Z,12.35
2024-02-19T22:40:31.518Z,13.90
2024-02-19T22:42:58.702Z,24.27
2024-02-19T22:45:25.252Z,12.30
2024-02-19T22:47:51.863Z,14.73
2024-02-19T22:50:18.383Z,12.07
2024-02-19T22:52:45.746Z,14.65
2024-02-19T22:55:13.365Z,15.07
2024-02-19T22:57:39.793Z,16.33
2024-02-19T23:00:06.894Z,14.45
2024-02-19T23:02:33.297Z,15.57
2024-02-19T23:04:59.746Z,17.13
2024-02-19T23:07:26.241Z,10.95
2024-02-19T23:09:52.727Z,14.85
2024-02-19T23:12:19.140Z,13.13
2024-02-19T23:14:45.614Z,12.10
2024-02-19T23:17:12.031Z,15.05
2024-02-19T23:19:38.542Z,14.73
2024-02-19T23:22:05.128Z,20.65
2024-02-19T23:24:31.564Z,11.88
2024-02-19T23:26:57.981Z,19.92
2024-02-19T23:29:24.415Z,17.27
2024-02-19T23:31:50.849Z,13.80
2024-02-19T23:34:17.494Z,12.80
2024-02-19T23:36:44.109Z,13.40
2024-02-19T23:39:11.032Z,18.20
2024-02-19T23:41:37.453Z,18.27
2024-02-19T23:44:03.942Z,22.52
2024-02-19T23:46:30.467Z,15.77
2024-02-19T23:48:57.038Z,12.93
2024-02-19T23:51:24.085Z,15.52
2024-02-19T23:53:50.516Z,15.43
2024-02-19T23:56:16.951Z,16.95
2024-02-19T23:58:43.538Z,19.13
